ADDS METAR Data INFO
IDs: Format: Raw Decoded Include TAF

Data at: 1554 UTC 12 Dec 2017

KADF 121456Z AUTO 33006KT 10SM CLR 08/M03 A3030 RMK AO2 SLP265 T00831028 51024
KADF 121356Z AUTO 33007KT 10SM CLR 07/M02 A3027 RMK AO2 SLP257 T00721017
KADF 121256Z AUTO 32008KT 10SM CLR 07/M01 A3026 RMK AO2 SLP251 T00721006
KADF 121156Z AUTO 33007KT 10SM CLR 08/M01 A3023 RMK AO2 SLP241 7//// T00781006 10133 20078 52023
KADF 121056Z AUTO 35007KT 10SM CLR 09/M01 A3021 RMK AO2 SLP233 T00891006
KADF 120956Z AUTO 33010KT 10SM CLR 10/M01 A3018 RMK AO2 SLP223 T01001011
KADF 120856Z AUTO 34012G19KT 10SM CLR 11/M02 A3016 RMK AO2 SLP216 T01061017 53021
KADF 120756Z AUTO 34010KT 10SM CLR 12/M02 A3014 RMK AO2 SLP210 T01221022
KADF 120656Z AUTO 33012G16KT 10SM CLR 13/M03 A3011 RMK AO2 SLP200 T01281033
KADF 120556Z AUTO 32007KT 10SM CLR 13/M06 A3010 RMK AO2 SLP195 T01331056 10150 20056 402390044 51020
KADF 120456Z AUTO 33011G16KT 10SM CLR 15/M06 A3008 RMK AO2 SLP190 T01501061
KADF 120356Z AUTO 34005KT 10SM CLR 14/M05 A3006 RMK AO2 SLP184 T01441050
KADF 120256Z AUTO 31006KT 10SM CLR 13/M03 A3004 RMK AO2 SLPNO T01281033 53014 TSNO
KADF 120156Z AUTO 00000KT 10SM CLR 06/00 A3001 RMK AO2 SLPNO T00610000
KADF 120056Z AUTO 00000KT 10SM CLR 09/M01 A3001 RMK AO2 SLPNO T00891011
KADF 112356Z AUTO 24005KT 10SM CLR 13/M03 A3000 RMK AO2 SLPNO T01281033 10239 20128 56003
KADF 112256Z AUTO 25007KT 10SM CLR 19/M04 A3000 RMK AO2 SLPNO T01941044
KADF 112156Z AUTO 24009KT 10SM CLR 23/M05 A3000 RMK AO2 SLPNO T02281050
KADF 112056Z AUTO 24010KT 10SM CLR 24/M05 A3001 RMK AO2 SLPNO T02391050 56041
KADF 111956Z AUTO 24012G18KT 10SM CLR 23/M06 A3002 RMK AO2 SLPNO T02331056
KADF 111856Z AUTO 23011KT 10SM CLR 22/M03 A3007 RMK AO2 SLPNO T02171028
KADF 111756Z AUTO 20010KT 10SM CLR 19/M02 A3013 RMK AO2 PRESFR SLPNO 6//// T01941022
KADF 111656Z AUTO 24008KT 10SM CLR 16/M01 A3018 RMK AO2 SLPNO T01611006
KADF 111556Z AUTO VRB03KT 10SM CLR 11/01 A3020 RMK AO2 SLPNO T01110006
KADF 111456Z AUTO 00000KT 10SM CLR 04/00 A3020 RMK AO2 SLPNO 6//// T00390000 TSNO
KADF 111356Z AUTO 00000KT 10SM CLR M02/M03 A3021 RMK AO2 SLP235 T10221033 FZRANO
KADF 111256Z AUTO 00000KT 10SM CLR M03/M04 A3023 RMK AO2 SLP241 T10331044 FZRANO
KADF 111156Z AUTO 00000KT 10SM CLR M04/M06 A3023 RMK AO2 SLP241 T10391056 11006 21039 55002 FZRANO
KADF 111056Z AUTO 00000KT 10SM CLR M03/M04 A3023 RMK AO2 SLP240 T10281044 FZRANO
KADF 110956Z AUTO 00000KT 10SM CLR M02/M03 A3022 RMK AO2 SLP238 T10221033 FZRANO
KADF 110856Z AUTO 21003KT 10SM CLR M03/M05 A3024 RMK AO2 SLP244 T10281050 55002 FZRANO
KADF 110756Z AUTO 00000KT 10SM CLR M02/M04 A3023 RMK AO2 SLP241 T10221039 FZRANO
KADF 110656Z AUTO 00000KT 10SM CLR M02/M03 A3024 RMK AO2 SLP244 T10171033 FZRANO
KADF 110556Z AUTO 00000KT 10SM CLR M01/M03 A3024 RMK AO2 SLP246 T10111028 10089 21011 401781072 53003 FZRANO
KADF 110456Z AUTO 00000KT 10SM CLR 01/M02 A3024 RMK AO2 SLP244 T00111017 FZRANO
KADF 110356Z AUTO 00000KT 10SM CLR 01/M02 A3023 RMK AO2 SLP243 T00111017 FZRANO